createdAt,value
2023-03-29T00:03:21.906Z,2.53
2023-03-29T00:07:23.304Z,2.53
2023-03-29T00:11:25.160Z,2.42
2023-03-29T00:15:26.558Z,2.38
2023-03-29T00:19:29.250Z,2.20
2023-03-29T00:23:30.668Z,2.33
2023-03-29T00:27:32.018Z,2.29
2023-03-29T00:31:33.420Z,2.28
2023-03-29T00:35:37.545Z,2.31
2023-03-29T00:39:38.899Z,2.22
2023-03-29T00:43:53.843Z,2.21
2023-03-29T00:47:56.861Z,2.22
2023-03-29T00:51:59.759Z,2.33
2023-03-29T00:56:02.942Z,2.33
2023-03-29T01:00:05.293Z,2.48
2023-03-29T01:04:08.101Z,2.58
2023-03-29T01:08:12.460Z,2.64
2023-03-29T01:12:15.570Z,2.63
2023-03-29T01:16:18.264Z,2.67
2023-03-29T01:20:22.855Z,2.84
2023-03-29T01:24:33.716Z,2.97
2023-03-29T01:28:38.884Z,2.78
2023-03-29T01:32:43.386Z,2.72
2023-03-29T01:36:48.262Z,2.57
2023-03-29T01:40:49.734Z,2.71
2023-03-29T01:44:56.494Z,2.73
2023-03-29T01:48:59.625Z,2.70
2023-03-29T01:53:04.150Z,2.57
2023-03-29T01:57:07.391Z,2.63
2023-03-29T02:01:12.051Z,2.57
2023-03-29T02:05:14.963Z,2.60
2023-03-29T02:09:16.888Z,2.79
2023-03-29T02:13:18.581Z,2.90
2023-03-29T02:17:22.300Z,2.86
2023-03-29T02:21:25.627Z,2.69
2023-03-29T02:25:27.024Z,2.79
2023-03-29T02:29:28.527Z,2.73
2023-03-29T02:33:34.254Z,2.83
2023-03-29T02:37:37.289Z,2.68
2023-03-29T02:41:39.168Z,2.83
2023-03-29T02:45:41.536Z,2.87
2023-03-29T02:49:44.399Z,2.80
2023-03-29T02:53:48.400Z,2.76
2023-03-29T02:57:49.759Z,2.45
2023-03-29T03:01:51.200Z,2.52
2023-03-29T03:05:54.093Z,2.34
2023-03-29T03:09:55.550Z,2.35
2023-03-29T03:13:57.033Z,2.45
2023-03-29T03:17:58.420Z,2.29
2023-03-29T03:22:01.141Z,2.36
2023-03-29T03:26:02.479Z,2.37
2023-03-29T03:30:04.516Z,2.36
2023-03-29T03:34:05.906Z,2.28
2023-03-29T03:38:08.616Z,2.12
2023-03-29T03:42:09.995Z,2.10
2023-03-29T03:46:11.457Z,2.02
2023-03-29T03:50:12.809Z,1.91
2023-03-29T03:54:15.537Z,2.02
2023-03-29T03:58:17.137Z,1.90
2023-03-29T04:02:18.529Z,1.87
2023-03-29T04:06:19.879Z,1.97
2023-03-29T04:10:22.586Z,1.78
2023-03-29T04:14:23.954Z,1.77
2023-03-29T04:18:25.443Z,1.71
2023-03-29T04:22:27.028Z,1.64
2023-03-29T04:26:29.745Z,1.71
2023-03-29T04:30:31.093Z,1.66
2023-03-29T04:34:32.478Z,1.58
2023-03-29T04:38:33.791Z,1.70
2023-03-29T04:42:36.597Z,1.71
2023-03-29T04:46:38.063Z,1.67
2023-03-29T04:50:39.481Z,1.76
2023-03-29T04:54:40.836Z,1.68
2023-03-29T04:58:43.547Z,1.86
2023-03-29T05:02:45.590Z,1.87
2023-03-29T05:06:46.973Z,1.95
2023-03-29T05:10:48.315Z,1.99
2023-03-29T05:14:51.029Z,2.03
2023-03-29T05:18:52.391Z,1.89
2023-03-29T05:22:53.869Z,2.01
2023-03-29T05:26:55.231Z,1.93
2023-03-29T05:31:01.987Z,2.05
2023-03-29T05:35:03.820Z,2.10
2023-03-29T05:39:05.228Z,2.28
2023-03-29T05:43:06.574Z,2.33
2023-03-29T05:47:09.275Z,2.36
2023-03-29T05:51:10.613Z,2.30
2023-03-29T05:55:11.954Z,2.16
2023-03-29T05:59:13.360Z,2.40
2023-03-29T06:07:19.241Z,2.63
2023-03-29T06:11:20.642Z,2.65
2023-03-29T06:15:21.978Z,2.51
2023-03-29T06:19:24.691Z,2.72
2023-03-29T06:23:26.069Z,2.89
2023-03-29T06:27:27.760Z,3.02
2023-03-29T06:31:29.131Z,3.10
2023-03-29T06:35:31.890Z,3.43
2023-03-29T06:39:33.219Z,3.42
2023-03-29T06:43:34.674Z,3.42
2023-03-29T06:47:36.318Z,3.34
2023-03-29T06:51:39.052Z,3.24
2023-03-29T06:55:40.414Z,3.34
2023-03-29T06:59:41.752Z,3.43
2023-03-29T07:03:46.024Z,3.39
2023-03-29T07:07:49.630Z,3.56
2023-03-29T07:11:50.968Z,3.59
2023-03-29T07:15:52.397Z,3.43
2023-03-29T07:19:53.757Z,3.66
2023-03-29T07:23:56.745Z,3.72
2023-03-29T07:27:58.088Z,3.73
2023-03-29T07:31:59.518Z,3.97
2023-03-29T07:36:00.965Z,4.21
2023-03-29T07:40:04.661Z,4.37
2023-03-29T07:44:06.018Z,4.16
2023-03-29T07:48:07.771Z,3.70
2023-03-29T07:52:09.139Z,3.92
2023-03-29T07:56:11.820Z,3.97
2023-03-29T08:00:13.681Z,4.04
2023-03-29T08:04:15.130Z,4.26
2023-03-29T08:08:16.507Z,4.36
2023-03-29T08:12:19.209Z,4.32
2023-03-29T08:16:20.550Z,4.48
2023-03-29T08:20:22.001Z,4.37
2023-03-29T08:24:23.390Z,4.71
2023-03-29T08:28:26.097Z,5.00
2023-03-29T08:32:27.503Z,4.94
2023-03-29T08:36:28.849Z,4.94
2023-03-29T08:40:30.331Z,5.00
2023-03-29T08:44:44.039Z,5.10
2023-03-29T08:48:47.865Z,5.20
2023-03-29T08:52:51.242Z,5.59
2023-03-29T08:56:54.900Z,5.90
2023-03-29T09:00:58.419Z,6.05
2023-03-29T09:05:02.403Z,6.33
2023-03-29T09:09:03.824Z,6.53
2023-03-29T09:13:13.580Z,6.84
2023-03-29T09:17:24.933Z,7.06
2023-03-29T09:21:29.198Z,7.26
2023-03-29T09:25:50.860Z,7.62
2023-03-29T09:30:02.439Z,7.15
2023-03-29T09:34:12.590Z,7.27
2023-03-29T09:38:16.855Z,7.29
2023-03-29T09:42:18.426Z,7.97
2023-03-29T09:46:22.770Z,8.20
2023-03-29T09:50:31.954Z,8.08
2023-03-29T09:54:33.562Z,8.00
2023-03-29T09:58:34.973Z,8.41
2023-03-29T10:02:36.383Z,8.86
2023-03-29T10:06:41.439Z,9.02
2023-03-29T10:10:42.758Z,8.66
2023-03-29T10:14:46.122Z,8.87
2023-03-29T10:18:47.471Z,8.95
2023-03-29T10:22:54.842Z,8.67
2023-03-29T10:26:58.141Z,8.55
2023-03-29T10:31:00.715Z,8.81
2023-03-29T10:35:06.194Z,8.85
2023-03-29T10:39:10.296Z,9.07
2023-03-29T10:43:12.623Z,8.91
2023-03-29T10:47:15.463Z,8.94
2023-03-29T10:51:17.871Z,9.22
2023-03-29T10:55:21.639Z,9.23
2023-03-29T10:59:28.071Z,9.36
2023-03-29T11:03:38.267Z,9.30
2023-03-29T11:07:46.447Z,9.40
2023-03-29T11:12:08.307Z,9.83
2023-03-29T11:16:25.550Z,10.04
2023-03-29T11:20:30.881Z,9.92
2023-03-29T11:24:42.586Z,10.05
2023-03-29T11:28:49.917Z,10.07
2023-03-29T11:32:54.571Z,10.40
2023-03-29T11:36:59.416Z,10.49
2023-03-29T11:41:03.316Z,10.36
2023-03-29T11:45:12.047Z,10.51
2023-03-29T11:49:16.784Z,10.66
2023-03-29T11:53:21.874Z,10.24
2023-03-29T11:57:26.095Z,10.42
2023-03-29T12:01:31.410Z,10.47
2023-03-29T12:05:35.757Z,10.65
2023-03-29T12:09:39.223Z,10.51
2023-03-29T12:13:43.759Z,10.87
2023-03-29T12:17:49.102Z,10.68
2023-03-29T12:21:50.937Z,10.60
2023-03-29T12:25:53.202Z,10.86
2023-03-29T12:30:09.508Z,11.38
2023-03-29T12:34:19.519Z,11.22
2023-03-29T12:38:22.197Z,11.16
2023-03-29T12:42:23.895Z,11.04
2023-03-29T12:46:26.746Z,10.90
2023-03-29T12:50:32.941Z,10.84
2023-03-29T12:54:34.291Z,10.91
2023-03-29T12:58:48.775Z,11.08
2023-03-29T13:02:59.574Z,11.23
2023-03-29T13:07:02.439Z,11.08
2023-03-29T13:11:04.576Z,10.96
2023-03-29T13:15:07.216Z,11.04
2023-03-29T13:19:16.101Z,11.25
2023-03-29T13:23:27.127Z,11.38
2023-03-29T13:27:33.437Z,11.46
2023-03-29T13:31:38.124Z,11.30
2023-03-29T13:35:44.722Z,11.23
2023-03-29T13:39:49.723Z,11.53
2023-03-29T13:43:52.576Z,11.36
2023-03-29T13:52:10.771Z,11.86
2023-03-29T13:56:17.074Z,12.02
2023-03-29T14:00:21.777Z,11.90
2023-03-29T14:04:24.282Z,12.17
2023-03-29T14:08:27.174Z,12.17
2023-03-29T14:12:34.262Z,12.04
2023-03-29T14:16:37.265Z,11.68
2023-03-29T14:20:42.576Z,11.82
2023-03-29T14:24:47.773Z,11.49
2023-03-29T14:28:50.984Z,11.26
2023-03-29T14:32:52.471Z,11.08
2023-03-29T14:36:54.242Z,11.17
2023-03-29T14:40:58.839Z,10.93
2023-03-29T14:45:04.449Z,10.88
2023-03-29T14:49:05.907Z,10.88
2023-03-29T14:53:08.473Z,10.87
2023-03-29T14:57:14.621Z,10.47
2023-03-29T15:01:18.692Z,10.49
2023-03-29T15:05:25.443Z,10.40
2023-03-29T15:09:28.964Z,10.62
2023-03-29T15:13:30.696Z,10.75
2023-03-29T15:17:49.470Z,10.73
2023-03-29T15:21:53.055Z,10.70
2023-03-29T15:25:56.134Z,10.65
2023-03-29T15:30:01.367Z,10.40
2023-03-29T15:34:06.317Z,10.30
2023-03-29T15:38:10.633Z,10.27
2023-03-29T15:42:12.223Z,10.24
2023-03-29T15:46:13.761Z,10.07
2023-03-29T15:50:16.750Z,10.07
2023-03-29T15:54:18.108Z,10.11
2023-03-29T15:58:22.601Z,10.16
2023-03-29T16:02:24.520Z,10.33
2023-03-29T16:06:27.326Z,10.36
2023-03-29T16:10:28.683Z,10.35
2023-03-29T16:14:30.179Z,10.50
2023-03-29T16:18:31.521Z,10.57
2023-03-29T16:22:34.217Z,10.76
2023-03-29T16:26:35.757Z,10.55
2023-03-29T16:30:37.570Z,10.38
2023-03-29T16:34:39.200Z,10.20
2023-03-29T16:38:42.257Z,10.08
2023-03-29T16:42:44.039Z,10.05
2023-03-29T16:46:45.603Z,10.06
2023-03-29T16:50:47.224Z,9.93
2023-03-29T16:54:49.902Z,9.98
2023-03-29T16:58:51.232Z,9.83
2023-03-29T17:02:52.791Z,9.64
2023-03-29T17:06:54.222Z,9.48
2023-03-29T17:10:57.237Z,9.51
2023-03-29T17:14:58.592Z,9.55
2023-03-29T17:18:59.967Z,9.56
2023-03-29T17:23:01.378Z,9.55
2023-03-29T17:27:04.085Z,9.42
2023-03-29T17:31:05.872Z,9.28
2023-03-29T17:35:07.583Z,9.29
2023-03-29T17:39:08.956Z,8.97
2023-03-29T17:43:11.642Z,8.86
2023-03-29T17:47:13.007Z,8.86
2023-03-29T17:51:14.354Z,8.78
2023-03-29T17:55:16.224Z,8.84
2023-03-29T17:59:18.950Z,8.62
2023-03-29T18:03:20.334Z,8.50
2023-03-29T18:07:21.689Z,8.30
2023-03-29T18:11:23.296Z,8.20
2023-03-29T18:15:26.463Z,8.13
2023-03-29T18:19:27.981Z,8.18
2023-03-29T18:23:29.362Z,8.14
2023-03-29T18:27:30.890Z,7.98
2023-03-29T18:31:34.181Z,8.03
2023-03-29T18:35:35.578Z,8.02
2023-03-29T18:39:36.933Z,7.83
2023-03-29T18:43:38.312Z,7.85
2023-03-29T18:47:41.053Z,7.70
2023-03-29T18:51:42.432Z,7.83
2023-03-29T18:55:44.150Z,7.80
2023-03-29T18:59:45.564Z,7.89
2023-03-29T19:03:48.428Z,7.90
2023-03-29T19:07:49.931Z,7.91
2023-03-29T19:11:51.282Z,7.91
2023-03-29T19:15:52.694Z,7.78
2023-03-29T19:19:55.421Z,7.78
2023-03-29T19:23:56.777Z,7.73
2023-03-29T19:27:58.574Z,7.79
2023-03-29T19:32:00.007Z,7.96
2023-03-29T19:36:02.969Z,8.02
2023-03-29T19:40:05.142Z,8.14
2023-03-29T19:44:06.499Z,8.09
2023-03-29T19:48:07.896Z,8.14
2023-03-29T19:52:10.624Z,8.07
2023-03-29T19:56:11.993Z,8.05
2023-03-29T20:00:13.776Z,7.93
2023-03-29T20:04:15.153Z,7.90
2023-03-29T20:08:17.851Z,7.95
2023-03-29T20:12:19.184Z,8.08
2023-03-29T20:16:20.601Z,8.06
2023-03-29T20:20:22.230Z,8.18
2023-03-29T20:24:25.027Z,8.22
2023-03-29T20:28:26.514Z,8.13
2023-03-29T20:32:27.848Z,8.06
2023-03-29T20:36:29.272Z,8.26
2023-03-29T20:40:34.186Z,8.27
2023-03-29T20:44:35.565Z,8.33
2023-03-29T20:48:36.902Z,8.41
2023-03-29T20:52:38.255Z,8.41
2023-03-29T20:56:41.057Z,8.26
2023-03-29T21:00:42.560Z,8.32
2023-03-29T21:04:43.894Z,8.36
2023-03-29T21:08:45.269Z,8.26
2023-03-29T21:12:47.963Z,8.30
2023-03-29T21:16:49.359Z,8.32
2023-03-29T21:20:50.699Z,8.22
2023-03-29T21:24:52.065Z,8.26
2023-03-29T21:28:54.776Z,8.20
2023-03-29T21:32:56.170Z,8.30
2023-03-29T21:36:57.524Z,8.29
2023-03-29T21:40:59.067Z,8.30
2023-03-29T21:45:02.082Z,8.27
2023-03-29T21:49:03.423Z,8.20
2023-03-29T21:53:04.782Z,8.15
2023-03-29T21:57:06.161Z,8.19
2023-03-29T22:01:08.929Z,8.17
2023-03-29T22:05:10.304Z,8.04
2023-03-29T22:09:11.661Z,8.06
2023-03-29T22:13:12.995Z,8.10
2023-03-29T22:17:15.698Z,8.17
2023-03-29T22:21:18.620Z,8.08
2023-03-29T22:25:19.972Z,8.20
2023-03-29T22:29:21.309Z,8.12
2023-03-29T22:33:24.035Z,8.14
2023-03-29T22:37:25.462Z,8.17
2023-03-29T22:41:26.855Z,8.11
2023-03-29T22:45:28.175Z,8.18
2023-03-29T22:49:30.870Z,8.20
2023-03-29T22:53:32.764Z,8.21
2023-03-29T22:57:34.146Z,8.20
2023-03-29T23:01:35.528Z,8.30
2023-03-29T23:05:38.280Z,8.36
2023-03-29T23:09:39.607Z,8.38
2023-03-29T23:13:40.971Z,8.29
2023-03-29T23:17:42.400Z,8.27
2023-03-29T23:21:45.129Z,8.21
2023-03-29T23:25:47.220Z,8.17
2023-03-29T23:29:48.597Z,8.17
2023-03-29T23:33:49.989Z,8.23
2023-03-29T23:37:52.729Z,8.27
2023-03-29T23:41:54.133Z,8.25
2023-03-29T23:45:55.814Z,8.36
2023-03-29T23:49:57.159Z,8.44
2023-03-29T23:53:59.855Z,8.43
2023-03-29T23:58:01.205Z,8.36
